createdAt,value
2023-02-04T00:00:59.081Z,7.95
2023-02-04T00:03:25.865Z,8.16
2023-02-04T00:05:52.508Z,8.15
2023-02-04T00:08:19.135Z,8.18
2023-02-04T00:10:47.161Z,7.61
2023-02-04T00:13:13.811Z,8.20
2023-02-04T00:15:40.416Z,7.98
2023-02-04T00:18:07.123Z,8.16
2023-02-04T00:20:33.742Z,8.19
2023-02-04T00:23:00.407Z,8.22
2023-02-04T00:25:27.379Z,8.17
2023-02-04T00:27:55.408Z,8.23
2023-02-04T00:30:22.062Z,7.95
2023-02-04T00:32:48.665Z,8.17
2023-02-04T00:35:15.263Z,8.00
2023-02-04T00:37:42.147Z,7.50
2023-02-04T00:40:10.369Z,8.13
2023-02-04T00:42:38.832Z,7.50
2023-02-04T00:45:07.881Z,7.96
2023-02-04T00:47:34.542Z,8.06
2023-02-04T00:50:01.113Z,8.07
2023-02-04T00:52:27.960Z,8.14
2023-02-04T00:54:54.637Z,7.90
2023-02-04T00:57:22.232Z,7.95
2023-02-04T00:59:49.004Z,7.86
2023-02-04T01:02:18.739Z,7.86
2023-02-04T01:04:45.366Z,8.07
2023-02-04T01:07:11.934Z,8.19
2023-02-04T01:09:38.495Z,7.87
2023-02-04T01:12:05.163Z,7.88
2023-02-04T01:14:31.705Z,8.00
2023-02-04T01:16:58.427Z,7.97
2023-02-04T01:19:27.407Z,7.95
2023-02-04T01:21:54.224Z,7.96
2023-02-04T01:24:20.775Z,7.96
2023-02-04T01:27:06.196Z,7.99
2023-02-04T01:29:32.845Z,7.93
2023-02-04T01:31:59.521Z,8.01
2023-02-04T01:34:27.499Z,7.96
2023-02-04T01:36:54.172Z,7.87
2023-02-04T01:39:20.834Z,8.00
2023-02-04T01:41:47.567Z,7.66
2023-02-04T01:44:14.347Z,7.98
2023-02-04T01:46:41.215Z,7.71
2023-02-04T01:49:11.010Z,7.63
2023-02-04T01:51:39.465Z,7.93
2023-02-04T01:54:09.482Z,7.92
2023-02-04T01:56:36.045Z,7.83
2023-02-04T01:59:02.743Z,7.76
2023-02-04T02:01:37.542Z,7.86
2023-02-04T02:04:04.870Z,7.87
2023-02-04T02:06:33.592Z,7.87
2023-02-04T02:09:02.373Z,7.86
2023-02-04T02:11:29.443Z,7.84
2023-02-04T02:13:56.258Z,7.80
2023-02-04T02:16:23.285Z,7.88
2023-02-04T02:18:50.730Z,7.68
2023-02-04T02:21:22.205Z,7.69
2023-02-04T02:23:53.899Z,7.84
2023-02-04T02:26:22.240Z,7.65
2023-02-04T02:28:49.566Z,7.49
2023-02-04T02:31:18.594Z,7.76
2023-02-04T02:33:45.686Z,7.76
2023-02-04T02:36:13.303Z,7.78
2023-02-04T02:38:40.224Z,7.75
2023-02-04T02:41:08.252Z,7.76
2023-02-04T02:43:36.506Z,7.75
2023-02-04T02:46:05.188Z,7.50
2023-02-04T02:48:32.598Z,7.73
2023-02-04T02:50:59.246Z,7.69
2023-02-04T02:53:25.835Z,7.58
2023-02-04T02:55:53.054Z,7.78
2023-02-04T02:58:27.965Z,7.68
2023-02-04T03:00:56.924Z,7.76
2023-02-04T03:03:27.128Z,7.70
2023-02-04T03:05:59.355Z,7.73
2023-02-04T03:08:26.533Z,7.57
2023-02-04T03:10:53.349Z,7.66
2023-02-04T03:13:20.923Z,7.66
2023-02-04T03:15:48.964Z,7.44
2023-02-04T03:18:18.811Z,7.59
2023-02-04T03:20:45.890Z,7.59
2023-02-04T03:23:12.822Z,7.53
2023-02-04T03:25:41.460Z,7.63
2023-02-04T03:28:09.155Z,7.46
2023-02-04T03:30:36.467Z,7.58
2023-02-04T03:33:04.589Z,7.53
2023-02-04T03:35:31.122Z,7.53
2023-02-04T03:37:57.628Z,7.51
2023-02-04T03:40:24.137Z,7.52
2023-02-04T03:42:50.661Z,7.51
2023-02-04T03:45:17.271Z,7.35
2023-02-04T03:47:43.786Z,7.49
2023-02-04T03:50:11.640Z,7.49
2023-02-04T03:52:38.190Z,7.45
2023-02-04T03:55:05.136Z,7.45
2023-02-04T03:57:31.834Z,7.23
2023-02-04T03:59:58.502Z,7.38
2023-02-04T04:02:25.176Z,7.39
2023-02-04T04:04:51.761Z,7.34
2023-02-04T04:07:19.898Z,7.28
2023-02-04T04:09:46.412Z,7.03
2023-02-04T04:12:12.964Z,7.23
2023-02-04T04:14:39.487Z,7.25
2023-02-04T04:17:06.039Z,7.27
2023-02-04T04:19:32.598Z,7.27
2023-02-04T04:21:59.170Z,6.97
2023-02-04T04:24:27.087Z,7.23
2023-02-04T04:26:53.772Z,7.28
2023-02-04T04:29:20.540Z,7.27
2023-02-04T04:31:47.193Z,7.23
2023-02-04T04:34:14.069Z,7.25
2023-02-04T04:36:40.654Z,7.26
2023-02-04T04:39:07.148Z,7.29
2023-02-04T04:41:35.130Z,7.29
2023-02-04T04:44:02.089Z,7.21
2023-02-04T04:46:28.709Z,7.28
2023-02-04T04:48:55.255Z,7.27
2023-02-04T04:51:21.855Z,7.28
2023-02-04T04:53:48.408Z,7.29
2023-02-04T04:56:14.985Z,7.00
2023-02-04T04:58:42.883Z,7.28
2023-02-04T05:01:09.459Z,6.57
2023-02-04T05:03:36.057Z,7.05
2023-02-04T05:06:02.763Z,7.31
2023-02-04T05:08:29.302Z,7.31
2023-02-04T05:10:55.866Z,7.30
2023-02-04T05:13:22.368Z,7.32
2023-02-04T05:15:50.228Z,7.33
2023-02-04T05:18:17.030Z,7.28
2023-02-04T05:20:43.557Z,7.30
2023-02-04T05:23:10.094Z,7.31
2023-02-04T05:25:36.663Z,7.32
2023-02-04T05:28:03.519Z,7.09
2023-02-04T05:30:30.228Z,7.27
2023-02-04T05:32:58.549Z,7.30
2023-02-04T05:35:25.090Z,7.30
2023-02-04T05:37:51.632Z,7.02
2023-02-04T05:40:18.492Z,7.27
2023-02-04T05:42:45.016Z,7.29
2023-02-04T05:45:15.078Z,7.27
2023-02-04T05:47:41.814Z,7.22
2023-02-04T05:50:10.841Z,7.22
2023-02-04T05:52:37.427Z,7.22
2023-02-04T05:55:04.908Z,7.23
2023-02-04T05:57:31.427Z,7.25
2023-02-04T05:59:58.197Z,7.26
2023-02-04T06:02:24.852Z,7.22
2023-02-04T06:04:51.363Z,7.23
2023-02-04T06:07:19.242Z,7.21
2023-02-04T06:09:45.775Z,7.11
2023-02-04T06:12:12.449Z,7.17
2023-02-04T06:14:39.213Z,7.15
2023-02-04T06:17:05.763Z,7.17
2023-02-04T06:19:32.301Z,7.15
2023-02-04T06:21:58.831Z,7.04
2023-02-04T06:24:26.758Z,7.19
2023-02-04T06:26:53.316Z,6.73
2023-02-04T06:29:19.870Z,7.17
2023-02-04T06:31:46.636Z,7.13
2023-02-04T06:34:13.182Z,7.24
2023-02-04T06:36:39.935Z,7.06
2023-02-04T06:39:06.619Z,6.87
2023-02-04T06:41:34.529Z,7.22
2023-02-04T06:44:01.181Z,7.21
2023-02-04T06:46:27.772Z,7.17
2023-02-04T06:48:54.367Z,6.49
2023-02-04T06:51:20.901Z,7.12
2023-02-04T06:53:47.748Z,7.06
2023-02-04T06:56:14.264Z,7.18
2023-02-04T06:58:42.106Z,7.04
2023-02-04T07:01:08.915Z,7.15
2023-02-04T07:03:35.446Z,7.16
2023-02-04T07:06:01.978Z,7.13
2023-02-04T07:08:28.565Z,7.12
2023-02-04T07:10:55.109Z,7.13
2023-02-04T07:13:21.613Z,7.11
2023-02-04T07:15:49.552Z,7.10
2023-02-04T07:18:16.188Z,7.10
2023-02-04T07:20:42.737Z,7.16
2023-02-04T07:23:09.253Z,6.81
2023-02-04T07:25:35.783Z,7.11
2023-02-04T07:28:02.376Z,6.78
2023-02-04T07:30:29.362Z,7.01
2023-02-04T07:32:57.521Z,7.01
2023-02-04T07:35:24.099Z,7.04
2023-02-04T07:37:52.772Z,7.04
2023-02-04T07:40:19.297Z,7.05
2023-02-04T07:42:45.819Z,7.06
2023-02-04T07:45:17.130Z,6.38
2023-02-04T07:47:43.915Z,6.80
2023-02-04T07:50:11.848Z,7.10
2023-02-04T07:52:38.469Z,7.13
2023-02-04T07:55:05.841Z,7.15
2023-02-04T07:57:32.507Z,7.18
2023-02-04T07:59:59.055Z,7.21
2023-02-04T08:02:26.158Z,7.24
2023-02-04T08:04:53.084Z,7.28
2023-02-04T08:07:21.073Z,7.32
2023-02-04T08:09:48.347Z,7.36
2023-02-04T08:12:14.936Z,7.40
2023-02-04T08:14:41.458Z,7.47
2023-02-04T08:17:08.061Z,7.51
2023-02-04T08:19:34.599Z,7.24
2023-02-04T08:22:01.285Z,7.60
2023-02-04T08:24:29.184Z,7.65
2023-02-04T08:26:55.894Z,7.68
2023-02-04T08:29:22.484Z,7.41
2023-02-04T08:31:49.168Z,7.37
2023-02-04T08:34:15.843Z,7.76
2023-02-04T08:36:42.710Z,7.53
2023-02-04T08:39:09.228Z,7.81
2023-02-04T08:41:37.265Z,7.87
2023-02-04T08:44:04.313Z,7.61
2023-02-04T08:46:31.282Z,7.93
2023-02-04T08:48:57.961Z,8.01
2023-02-04T08:51:24.670Z,8.00
2023-02-04T08:53:51.231Z,8.14
2023-02-04T08:56:17.877Z,8.22
2023-02-04T08:58:46.285Z,8.19
2023-02-04T09:01:13.130Z,8.41
2023-02-04T09:03:39.907Z,8.46
2023-02-04T09:06:07.203Z,8.51
2023-02-04T09:08:33.814Z,8.25
2023-02-04T09:11:00.407Z,8.54
2023-02-04T09:13:28.216Z,8.53
2023-02-04T09:15:56.278Z,8.52
2023-02-04T09:18:23.084Z,8.61
2023-02-04T09:20:50.337Z,8.57
2023-02-04T09:23:17.174Z,8.62
2023-02-04T09:25:45.267Z,8.75
2023-02-04T09:28:13.320Z,8.77
2023-02-04T09:30:41.210Z,8.88
2023-02-04T09:33:11.038Z,8.86
2023-02-04T09:35:38.039Z,8.80
2023-02-04T09:38:05.050Z,8.95
2023-02-04T09:40:34.398Z,8.96
2023-02-04T09:43:02.919Z,9.03
2023-02-04T09:45:33.248Z,9.00
2023-02-04T09:48:02.555Z,9.03
2023-02-04T09:50:31.918Z,9.11
2023-02-04T09:53:01.742Z,9.17
2023-02-04T09:55:31.792Z,9.25
2023-02-04T09:57:58.299Z,9.30
2023-02-04T10:00:27.081Z,9.32
2023-02-04T10:02:53.847Z,9.24
2023-02-04T10:05:27.182Z,9.23
2023-02-04T10:07:55.296Z,9.13
2023-02-04T10:10:24.486Z,9.26
2023-02-04T10:12:53.243Z,9.26
2023-02-04T10:15:21.293Z,9.21
2023-02-04T10:17:50.490Z,9.19
2023-02-04T10:20:23.533Z,9.30
2023-02-04T10:22:53.342Z,9.41
2023-02-04T10:25:23.716Z,9.49
2023-02-04T10:27:52.128Z,9.62
2023-02-04T10:30:21.160Z,9.66
2023-02-04T10:32:48.270Z,9.83
2023-02-04T10:35:16.724Z,9.94
2023-02-04T10:37:43.712Z,10.10
2023-02-04T10:40:27.954Z,10.18
2023-02-04T10:42:54.664Z,10.25
2023-02-04T10:45:23.079Z,10.20
2023-02-04T10:47:51.556Z,10.45
2023-02-04T10:50:19.731Z,10.48
2023-02-04T10:52:50.011Z,10.30
2023-02-04T10:55:18.557Z,10.14
2023-02-04T10:57:48.721Z,10.22
2023-02-04T11:00:17.937Z,10.25
2023-02-04T11:02:48.088Z,10.39
2023-02-04T11:05:17.845Z,10.45
2023-02-04T11:07:45.211Z,10.49
2023-02-04T11:10:14.763Z,10.52
2023-02-04T11:12:43.047Z,10.54
2023-02-04T11:15:39.015Z,10.51
2023-02-04T11:18:08.208Z,10.37
2023-02-04T11:20:35.528Z,10.38
2023-02-04T11:23:29.245Z,10.31
2023-02-04T11:26:03.464Z,10.49
2023-02-04T11:28:44.528Z,10.61
2023-02-04T11:31:27.828Z,10.65
2023-02-04T11:34:24.270Z,10.68
2023-02-04T11:36:55.785Z,10.56
2023-02-04T11:39:26.862Z,10.37
2023-02-04T11:41:53.712Z,10.76
2023-02-04T11:44:20.508Z,10.76
2023-02-04T11:46:52.045Z,10.91
2023-02-04T11:49:20.362Z,10.84
2023-02-04T11:51:47.058Z,11.01
2023-02-04T11:54:15.100Z,10.83
2023-02-04T11:56:42.071Z,10.60
2023-02-04T11:59:11.126Z,10.80
2023-02-04T12:01:37.676Z,10.88
2023-02-04T12:04:08.078Z,10.84
2023-02-04T12:06:37.158Z,10.90
2023-02-04T12:09:07.491Z,10.92
2023-02-04T12:11:34.082Z,10.62
2023-02-04T12:14:08.222Z,10.55
2023-02-04T12:16:40.562Z,10.60
2023-02-04T12:19:08.623Z,10.59
2023-02-04T12:21:35.204Z,10.59
2023-02-04T12:24:01.803Z,10.52
2023-02-04T12:26:28.327Z,10.57
2023-02-04T12:28:54.881Z,10.50
2023-02-04T12:31:21.497Z,10.58
2023-02-04T12:33:48.273Z,10.62
2023-02-04T12:36:16.170Z,10.48
2023-02-04T12:38:42.739Z,10.73
2023-02-04T12:41:09.853Z,10.72
2023-02-04T12:43:36.485Z,10.56
2023-02-04T12:46:03.178Z,10.41
2023-02-04T12:48:30.214Z,10.33
2023-02-04T12:50:56.857Z,10.52
2023-02-04T12:53:24.820Z,10.53
2023-02-04T12:55:51.495Z,10.55
2023-02-04T12:58:18.117Z,10.52
2023-02-04T13:00:44.689Z,10.56
2023-02-04T13:03:11.361Z,10.60
2023-02-04T13:05:37.885Z,10.65
2023-02-04T13:08:04.962Z,10.61
2023-02-04T13:10:32.846Z,10.55
2023-02-04T13:12:59.540Z,10.52
2023-02-04T13:15:26.207Z,10.43
2023-02-04T13:17:53.307Z,10.37
2023-02-04T13:20:20.096Z,10.44
2023-02-04T13:22:46.717Z,10.50
2023-02-04T13:25:13.313Z,10.55
2023-02-04T13:27:41.325Z,10.63
2023-02-04T13:30:09.337Z,10.63
2023-02-04T13:32:35.980Z,10.54
2023-02-04T13:35:02.763Z,10.63
2023-02-04T13:37:29.351Z,10.67
2023-02-04T13:39:55.909Z,10.69
2023-02-04T13:42:22.524Z,10.50
2023-02-04T13:44:50.380Z,10.42
2023-02-04T13:47:17.079Z,10.46
2023-02-04T13:49:43.603Z,10.43
2023-02-04T13:52:10.160Z,10.44
2023-02-04T13:54:36.872Z,10.33
2023-02-04T13:57:03.569Z,10.60
2023-02-04T13:59:30.073Z,10.68
2023-02-04T14:01:58.814Z,10.61
2023-02-04T14:04:25.427Z,10.70
2023-02-04T14:06:52.000Z,10.74
2023-02-04T14:09:18.522Z,10.80
2023-02-04T14:11:45.104Z,10.84
2023-02-04T14:14:11.612Z,10.87
2023-02-04T14:16:38.206Z,10.91
2023-02-04T14:19:06.487Z,10.95
2023-02-04T14:21:33.174Z,11.03
2023-02-04T14:23:59.987Z,11.12
2023-02-04T14:26:26.650Z,11.25
2023-02-04T14:28:53.180Z,11.33
2023-02-04T14:31:19.881Z,11.13
2023-02-04T14:33:48.039Z,10.84
2023-02-04T14:36:17.251Z,10.72
2023-02-04T14:38:43.807Z,10.69
2023-02-04T14:41:10.460Z,10.65
2023-02-04T14:43:37.010Z,10.61
2023-02-04T14:46:05.604Z,10.57
2023-02-04T14:48:32.667Z,10.51
2023-02-04T14:50:59.285Z,10.39
2023-02-04T14:53:27.180Z,10.44
2023-02-04T14:55:54.057Z,10.32
2023-02-04T14:58:20.561Z,10.32
2023-02-04T15:00:47.475Z,10.33
2023-02-04T15:03:13.978Z,10.32
2023-02-04T15:05:40.532Z,10.46
2023-02-04T15:08:07.086Z,10.48
2023-02-04T15:10:35.393Z,10.51
2023-02-04T15:13:02.180Z,10.55
2023-02-04T15:15:28.759Z,10.56
2023-02-04T15:17:55.301Z,10.60
2023-02-04T15:20:22.166Z,10.57
2023-02-04T15:22:48.718Z,10.38
2023-02-04T15:25:15.474Z,10.49
2023-02-04T15:27:43.397Z,10.36
2023-02-04T15:30:10.930Z,10.36
2023-02-04T15:32:37.412Z,10.29
2023-02-04T15:35:04.609Z,10.20
2023-02-04T15:37:31.440Z,10.14
2023-02-04T15:39:58.137Z,9.96
2023-02-04T15:42:24.807Z,9.98
2023-02-04T15:44:52.793Z,9.94
2023-02-04T15:47:19.285Z,9.79
2023-02-04T15:49:46.152Z,9.69
2023-02-04T15:52:24.112Z,9.57
2023-02-04T15:54:52.318Z,9.46
2023-02-04T15:57:18.969Z,9.34
2023-02-04T15:59:45.536Z,9.24
2023-02-04T16:02:15.785Z,9.11
2023-02-04T16:04:42.430Z,8.71
2023-02-04T16:07:08.921Z,8.68
2023-02-04T16:09:35.760Z,8.76
2023-02-04T16:12:03.057Z,8.66
2023-02-04T16:14:29.719Z,8.57
2023-02-04T16:16:56.320Z,8.44
2023-02-04T16:19:24.268Z,8.34
2023-02-04T16:21:50.733Z,8.17
2023-02-04T16:24:17.260Z,7.87
2023-02-04T16:26:43.828Z,7.94
2023-02-04T16:29:10.401Z,7.55
2023-02-04T16:31:36.913Z,7.62
2023-02-04T16:34:03.964Z,7.52
2023-02-04T16:36:31.834Z,7.08
2023-02-04T16:38:59.933Z,7.23
2023-02-04T16:41:26.499Z,6.83
2023-02-04T16:43:53.091Z,7.02
2023-02-04T16:46:19.622Z,6.96
2023-02-04T16:48:46.451Z,6.84
2023-02-04T16:51:15.804Z,6.74
2023-02-04T16:53:43.724Z,6.72
2023-02-04T16:56:10.615Z,6.66
2023-02-04T16:58:37.366Z,6.60
2023-02-04T17:01:04.103Z,6.54
2023-02-04T17:03:30.737Z,6.50
2023-02-04T17:05:57.661Z,6.25
2023-02-04T17:08:24.510Z,6.41
2023-02-04T17:10:52.541Z,6.42
2023-02-04T17:13:19.390Z,6.24
2023-02-04T17:15:45.920Z,6.15
2023-02-04T17:18:12.953Z,6.06
2023-02-04T17:20:39.463Z,5.81
2023-02-04T17:23:06.055Z,5.82
2023-02-04T17:25:32.879Z,5.78
2023-02-04T17:28:01.005Z,5.76
2023-02-04T17:30:27.704Z,5.68
2023-02-04T17:32:54.370Z,5.60
2023-02-04T17:35:20.926Z,5.41
2023-02-04T17:37:47.505Z,5.54
2023-02-04T17:40:14.039Z,5.52
2023-02-04T17:42:41.525Z,5.52
2023-02-04T17:45:11.075Z,5.55
2023-02-04T17:47:38.415Z,5.53
2023-02-04T17:50:07.438Z,5.36
2023-02-04T17:52:34.445Z,5.53
2023-02-04T17:55:01.346Z,5.38
2023-02-04T17:57:28.238Z,5.56
2023-02-04T17:59:54.723Z,5.57
2023-02-04T18:02:26.437Z,5.39
2023-02-04T18:04:55.088Z,5.46
2023-02-04T18:07:22.564Z,5.43
2023-02-04T18:09:49.163Z,5.36
2023-02-04T18:12:18.902Z,5.39
2023-02-04T18:14:45.622Z,5.35
2023-02-04T18:17:14.683Z,5.34
2023-02-04T18:19:43.288Z,5.29
2023-02-04T18:22:11.696Z,5.13
2023-02-04T18:24:39.816Z,5.16
2023-02-04T18:27:16.069Z,4.90
2023-02-04T18:29:45.071Z,5.02
2023-02-04T18:32:18.863Z,4.69
2023-02-04T18:34:49.910Z,4.94
2023-02-04T18:37:25.886Z,4.38
2023-02-04T18:39:53.406Z,4.87
2023-02-04T18:42:24.850Z,4.82
2023-02-04T18:44:51.667Z,4.78
2023-02-04T18:47:27.593Z,4.82
2023-02-04T18:49:55.920Z,4.80
2023-02-04T18:52:22.755Z,4.77
2023-02-04T18:54:51.165Z,4.71
2023-02-04T18:57:35.508Z,4.72
2023-02-04T19:00:28.393Z,4.71
2023-02-04T19:02:57.609Z,4.68
2023-02-04T19:05:36.192Z,4.63
2023-02-04T19:08:20.741Z,4.60
2023-02-04T19:10:47.742Z,4.58
2023-02-04T19:13:18.831Z,4.55
2023-02-04T19:15:54.169Z,4.52
2023-02-04T19:18:25.150Z,4.46
2023-02-04T19:20:53.115Z,4.47
2023-02-04T19:23:21.974Z,4.52
2023-02-04T19:25:50.025Z,4.51
2023-02-04T19:28:26.401Z,4.46
2023-02-04T19:30:58.491Z,4.50
2023-02-04T19:33:27.792Z,4.56
2023-02-04T19:35:55.638Z,4.58
2023-02-04T19:38:36.588Z,4.53
2023-02-04T19:41:18.566Z,4.52
2023-02-04T19:43:45.132Z,4.52
2023-02-04T19:46:20.808Z,4.55
2023-02-04T19:48:47.501Z,4.57
2023-02-04T19:51:31.784Z,4.61
2023-02-04T19:54:10.527Z,4.64
2023-02-04T19:56:39.569Z,4.61
2023-02-04T19:59:22.076Z,4.46
2023-02-04T20:01:48.871Z,4.62
2023-02-04T20:04:19.289Z,4.32
2023-02-04T20:06:48.113Z,4.54
2023-02-04T20:09:17.158Z,4.50
2023-02-04T20:12:08.562Z,4.47
2023-02-04T20:14:47.406Z,4.47
2023-02-04T20:17:39.152Z,4.43
2023-02-04T20:20:23.842Z,4.49
2023-02-04T20:22:54.905Z,4.37
2023-02-04T20:25:43.437Z,4.43
2023-02-04T20:28:16.305Z,4.43
2023-02-04T20:30:43.195Z,3.73
2023-02-04T20:33:22.865Z,4.50
2023-02-04T20:36:25.162Z,4.52
2023-02-04T20:39:13.500Z,4.46
2023-02-04T20:41:40.190Z,4.55
2023-02-04T20:44:15.068Z,4.52
2023-02-04T20:46:41.725Z,4.50
2023-02-04T20:49:21.790Z,4.42
2023-02-04T20:51:48.544Z,4.53
2023-02-04T20:54:17.976Z,4.53
2023-02-04T20:56:44.698Z,4.31
2023-02-04T20:59:26.824Z,4.59
2023-02-04T21:01:53.415Z,4.56
2023-02-04T21:04:24.423Z,4.60
2023-02-04T21:06:52.990Z,4.62
2023-02-04T21:09:24.364Z,4.65
2023-02-04T21:11:51.277Z,4.66
2023-02-04T21:14:17.900Z,4.70
2023-02-04T21:16:44.565Z,4.68
2023-02-04T21:19:11.147Z,4.70
2023-02-04T21:21:37.836Z,4.55
2023-02-04T21:24:05.282Z,4.76
2023-02-04T21:26:33.392Z,4.74
2023-02-04T21:29:00.193Z,4.66
2023-02-04T21:31:26.916Z,4.62
2023-02-04T21:33:53.435Z,4.83
2023-02-04T21:36:20.002Z,4.85
2023-02-04T21:38:46.557Z,4.83
2023-02-04T21:41:13.690Z,4.82
2023-02-04T21:43:41.845Z,4.87
2023-02-04T21:46:08.500Z,4.85
2023-02-04T21:48:35.261Z,4.68
2023-02-04T21:51:01.870Z,4.88
2023-02-04T21:53:28.395Z,4.86
2023-02-04T21:55:54.965Z,4.91
2023-02-04T21:58:21.463Z,4.87
2023-02-04T22:00:49.533Z,4.87
2023-02-04T22:03:16.108Z,4.79
2023-02-04T22:05:43.240Z,4.82
2023-02-04T22:08:10.480Z,4.85
2023-02-04T22:10:37.375Z,4.85
2023-02-04T22:13:04.247Z,4.88
2023-02-04T22:15:31.026Z,4.86
2023-02-04T22:17:59.112Z,4.75
2023-02-04T22:20:25.895Z,4.87
2023-02-04T22:22:52.717Z,4.91
2023-02-04T22:25:20.993Z,4.97
2023-02-04T22:27:47.645Z,4.96
2023-02-04T22:30:16.192Z,4.93
2023-02-04T22:32:43.026Z,4.94
2023-02-04T22:35:11.873Z,4.95
2023-02-04T22:37:40.371Z,4.95
2023-02-04T22:40:08.769Z,4.20
2023-02-04T22:42:35.288Z,4.74
2023-02-04T22:45:02.217Z,5.01
2023-02-04T22:47:29.021Z,5.01
2023-02-04T22:49:55.578Z,5.01
2023-02-04T22:52:23.445Z,5.02
2023-02-04T22:54:50.082Z,4.38
2023-02-04T22:57:16.572Z,4.79
2023-02-04T22:59:43.424Z,4.76
2023-02-04T23:02:10.087Z,4.98
2023-02-04T23:04:36.697Z,4.97
2023-02-04T23:07:03.366Z,5.00
2023-02-04T23:09:31.588Z,5.00
2023-02-04T23:11:58.614Z,5.02
2023-02-04T23:14:25.271Z,5.06
2023-02-04T23:16:52.009Z,4.95
2023-02-04T23:19:18.803Z,5.05
2023-02-04T23:21:45.331Z,4.71
2023-02-04T23:24:12.250Z,5.12
2023-02-04T23:26:40.464Z,5.03
2023-02-04T23:29:07.087Z,5.11
2023-02-04T23:31:33.608Z,5.10
2023-02-04T23:34:00.268Z,5.10
2023-02-04T23:36:26.860Z,5.10
2023-02-04T23:38:53.770Z,5.09
2023-02-04T23:41:20.338Z,5.08
2023-02-04T23:43:48.287Z,5.09
2023-02-04T23:46:14.847Z,5.05
2023-02-04T23:48:41.511Z,5.03
2023-02-04T23:51:08.428Z,5.06
2023-02-04T23:53:35.283Z,5.08
2023-02-04T23:56:01.915Z,5.04
2023-02-04T23:58:28.599Z,4.83
